aviador You're here:

KASD Decoded Metar

SLIDELL 22 in LA, USA
Report Time2017-08-24 00:53:00
UTC Time2017-08-24 01:09:35
Flight Rules vfr VFR
Wind180° at 03 kt
W.Decomp.*RWY 18: 3.0 kt HW 0.1 kt LCW
W.Rank180° ranks 8
Current wind is below 180° avg. (7.3)
Visibility9999 m
Phenomena:N/A
Clouds:N/A
Expected CloudBase > 1,600 ft AGL from Temp-Dew spread
CeilingNone
Temp28°C (ISA +13)
Dew Point24°C (79% RH)
Heat Index31.9°C
QNH1012 hPa
Density Alt1,959 ft
Elevation30 ft
Report Wrong Elevation
Raw Report
KASD 240053Z AUTO 18003KT 10SM CLR 28/24 A2988 RMK AO2 LTG DSNT N
AND NE SLP119 T02830239=

Extra information for KASD:More info

Metar Taf Metar & Taf Last 4 Metars F.Rules Stats Wind Profile Meteogram Temp Stats Airport Information Weather charts Add Link Nearby VenuesMetar ALERT Operation Metar Decoded Social comments

AIRNAV info for KASD